sensor_id;sensor_type;location;lat;lon;timestamp;P1;durP1;ratioP1;P2;durP2;ratioP2
69188;SDS011;56302;52.322;5.926;2023-02-28T00:00:32;4.50;;;1.60;;
69188;SDS011;56302;52.322;5.926;2023-02-28T00:02:58;5.03;;;1.70;;
69188;SDS011;56302;52.322;5.926;2023-02-28T00:05:25;4.60;;;2.00;;
69188;SDS011;56302;52.322;5.926;2023-02-28T00:07:52;4.65;;;1.70;;
69188;SDS011;56302;52.322;5.926;2023-02-28T00:10:19;4.07;;;1.20;;
69188;SDS011;56302;52.322;5.926;2023-02-28T00:12:47;5.53;;;1.90;;
69188;SDS011;56302;52.322;5.926;2023-02-28T00:15:13;6.60;;;1.60;;
69188;SDS011;56302;52.322;5.926;2023-02-28T00:17:39;3.65;;;1.50;;
69188;SDS011;56302;52.322;5.926;2023-02-28T00:20:05;5.50;;;1.60;;
69188;SDS011;56302;52.322;5.926;2023-02-28T00:22:35;3.55;;;1.52;;
69188;SDS011;56302;52.322;5.926;2023-02-28T00:25:01;3.33;;;1.52;;
69188;SDS011;56302;52.322;5.926;2023-02-28T00:27:27;5.37;;;1.37;;
69188;SDS011;56302;52.322;5.926;2023-02-28T00:29:52;4.57;;;1.70;;
69188;SDS011;56302;52.322;5.926;2023-02-28T00:32:19;3.70;;;1.27;;
69188;SDS011;56302;52.322;5.926;2023-02-28T00:34:44;6.68;;;1.67;;
69188;SDS011;56302;52.322;5.926;2023-02-28T00:37:10;5.23;;;1.70;;
69188;SDS011;56302;52.322;5.926;2023-02-28T00:39:37;3.53;;;1.55;;
69188;SDS011;56302;52.322;5.926;2023-02-28T00:42:03;3.25;;;1.25;;
69188;SDS011;56302;52.322;5.926;2023-02-28T00:44:29;4.00;;;1.73;;
69188;SDS011;56302;52.322;5.926;2023-02-28T00:46:55;5.18;;;1.75;;
69188;SDS011;56302;52.322;5.926;2023-02-28T00:49:21;6.90;;;1.48;;
69188;SDS011;56302;52.322;5.926;2023-02-28T00:51:47;3.50;;;1.50;;
69188;SDS011;56302;52.322;5.926;2023-02-28T00:54:12;5.55;;;1.80;;
69188;SDS011;56302;52.322;5.926;2023-02-28T00:56:38;3.40;;;1.53;;
69188;SDS011;56302;52.322;5.926;2023-02-28T00:59:04;4.88;;;1.88;;
69188;SDS011;56302;52.322;5.926;2023-02-28T01:01:29;4.27;;;1.70;;
69188;SDS011;56302;52.322;5.926;2023-02-28T01:03:55;5.03;;;1.93;;
69188;SDS011;56302;52.322;5.926;2023-02-28T01:06:20;5.68;;;1.80;;
69188;SDS011;56302;52.322;5.926;2023-02-28T01:08:46;4.33;;;1.67;;
69188;SDS011;56302;52.322;5.926;2023-02-28T01:11:12;5.17;;;1.73;;
69188;SDS011;56302;52.322;5.926;2023-02-28T01:13:40;4.80;;;1.60;;
69188;SDS011;56302;52.322;5.926;2023-02-28T01:16:06;5.25;;;1.50;;
69188;SDS011;56302;52.322;5.926;2023-02-28T01:18:32;5.68;;;1.60;;
69188;SDS011;56302;52.322;5.926;2023-02-28T01:20:57;3.77;;;1.50;;
69188;SDS011;56302;52.322;5.926;2023-02-28T01:23:23;2.83;;;1.33;;
69188;SDS011;56302;52.322;5.926;2023-02-28T01:25:49;4.72;;;1.38;;
69188;SDS011;56302;52.322;5.926;2023-02-28T01:28:16;6.60;;;1.40;;
69188;SDS011;56302;52.322;5.926;2023-02-28T01:30:41;5.73;;;1.87;;
69188;SDS011;56302;52.322;5.926;2023-02-28T01:33:07;3.37;;;1.60;;
69188;SDS011;56302;52.322;5.926;2023-02-28T01:35:33;5.95;;;1.75;;
69188;SDS011;56302;52.322;5.926;2023-02-28T01:37:59;4.47;;;1.77;;
69188;SDS011;56302;52.322;5.926;2023-02-28T01:40:25;4.20;;;1.50;;
69188;SDS011;56302;52.322;5.926;2023-02-28T01:42:51;7.70;;;1.83;;
69188;SDS011;56302;52.322;5.926;2023-02-28T01:45:18;8.88;;;1.83;;
69188;SDS011;56302;52.322;5.926;2023-02-28T01:47:50;3.43;;;1.30;;
69188;SDS011;56302;52.322;5.926;2023-02-28T01:50:21;3.60;;;1.20;;
69188;SDS011;56302;52.322;5.926;2023-02-28T01:52:50;3.65;;;1.38;;
69188;SDS011;56302;52.322;5.926;2023-02-28T01:55:19;3.60;;;1.40;;
69188;SDS011;56302;52.322;5.926;2023-02-28T01:57:51;4.53;;;1.60;;
69188;SDS011;56302;52.322;5.926;2023-02-28T02:00:20;3.60;;;1.10;;
69188;SDS011;56302;52.322;5.926;2023-02-28T02:02:50;5.55;;;1.58;;
69188;SDS011;56302;52.322;5.926;2023-02-28T02:05:19;4.47;;;1.35;;
69188;SDS011;56302;52.322;5.926;2023-02-28T02:07:48;5.53;;;1.63;;
69188;SDS011;56302;52.322;5.926;2023-02-28T02:10:21;3.50;;;1.38;;
69188;SDS011;56302;52.322;5.926;2023-02-28T02:12:53;4.20;;;1.50;;
69188;SDS011;56302;52.322;5.926;2023-02-28T02:15:45;5.53;;;1.83;;
69188;SDS011;56302;52.322;5.926;2023-02-28T02:18:26;5.53;;;1.95;;
69188;SDS011;56302;52.322;5.926;2023-02-28T02:21:32;5.57;;;1.98;;
69188;SDS011;56302;52.322;5.926;2023-02-28T02:32:20;5.32;;;1.90;;
69188;SDS011;56302;52.322;5.926;2023-02-28T02:35:25;4.03;;;1.77;;
69188;SDS011;56302;52.322;5.926;2023-02-28T02:41:03;3.83;;;1.80;;
69188;SDS011;56302;52.322;5.926;2023-02-28T02:43:30;6.95;;;1.70;;
69188;SDS011;56302;52.322;5.926;2023-02-28T02:46:06;5.25;;;1.95;;
69188;SDS011;56302;52.322;5.926;2023-02-28T02:48:41;6.30;;;1.77;;
69188;SDS011;56302;52.322;5.926;2023-02-28T02:51:10;5.00;;;2.10;;
69188;SDS011;56302;52.322;5.926;2023-02-28T02:53:54;6.57;;;1.90;;
69188;SDS011;56302;52.322;5.926;2023-02-28T02:56:24;7.15;;;2.08;;
69188;SDS011;56302;52.322;5.926;2023-02-28T02:58:53;4.15;;;1.60;;
69188;SDS011;56302;52.322;5.926;2023-02-28T03:01:23;6.10;;;1.90;;
69188;SDS011;56302;52.322;5.926;2023-02-28T03:04:05;5.70;;;1.90;;
69188;SDS011;56302;52.322;5.926;2023-02-28T03:06:33;6.20;;;2.20;;
69188;SDS011;56302;52.322;5.926;2023-02-28T03:09:00;4.40;;;1.42;;
69188;SDS011;56302;52.322;5.926;2023-02-28T03:11:26;4.28;;;2.00;;
69188;SDS011;56302;52.322;5.926;2023-02-28T03:25:20;3.92;;;1.58;;
69188;SDS011;56302;52.322;5.926;2023-02-28T03:28:00;5.90;;;2.00;;
69188;SDS011;56302;52.322;5.926;2023-02-28T03:33:12;4.93;;;1.70;;
69188;SDS011;56302;52.322;5.926;2023-02-28T03:35:43;4.25;;;1.58;;
69188;SDS011;56302;52.322;5.926;2023-02-28T03:38:21;6.75;;;1.80;;
69188;SDS011;56302;52.322;5.926;2023-02-28T03:41:07;5.65;;;2.05;;
69188;SDS011;56302;52.322;5.926;2023-02-28T03:43:41;5.10;;;1.98;;
69188;SDS011;56302;52.322;5.926;2023-02-28T03:46:15;5.60;;;1.70;;
69188;SDS011;56302;52.322;5.926;2023-02-28T03:48:49;4.15;;;2.20;;
69188;SDS011;56302;52.322;5.926;2023-02-28T03:51:22;4.63;;;1.67;;
69188;SDS011;56302;52.322;5.926;2023-02-28T03:53:59;6.07;;;1.90;;
69188;SDS011;56302;52.322;5.926;2023-02-28T03:56:43;6.20;;;2.00;;
69188;SDS011;56302;52.322;5.926;2023-02-28T03:59:28;5.00;;;1.70;;
69188;SDS011;56302;52.322;5.926;2023-02-28T04:01:57;5.60;;;2.00;;
69188;SDS011;56302;52.322;5.926;2023-02-28T04:04:23;4.50;;;2.00;;
69188;SDS011;56302;52.322;5.926;2023-02-28T04:06:49;4.00;;;1.73;;
69188;SDS011;56302;52.322;5.926;2023-02-28T04:09:16;4.63;;;2.00;;
69188;SDS011;56302;52.322;5.926;2023-02-28T04:11:42;9.20;;;2.13;;
69188;SDS011;56302;52.322;5.926;2023-02-28T04:14:10;6.65;;;2.30;;
69188;SDS011;56302;52.322;5.926;2023-02-28T04:16:38;5.57;;;2.00;;
69188;SDS011;56302;52.322;5.926;2023-02-28T04:19:05;5.55;;;2.10;;
69188;SDS011;56302;52.322;5.926;2023-02-28T04:21:34;7.57;;;2.37;;
69188;SDS011;56302;52.322;5.926;2023-02-28T04:24:01;6.90;;;2.10;;
69188;SDS011;56302;52.322;5.926;2023-02-28T04:26:30;4.78;;;2.17;;
69188;SDS011;56302;52.322;5.926;2023-02-28T04:29:00;7.70;;;2.50;;
69188;SDS011;56302;52.322;5.926;2023-02-28T04:31:27;8.77;;;2.42;;
69188;SDS011;56302;52.322;5.926;2023-02-28T04:33:53;6.67;;;2.60;;
69188;SDS011;56302;52.322;5.926;2023-02-28T04:36:18;4.87;;;2.17;;
69188;SDS011;56302;52.322;5.926;2023-02-28T04:38:44;4.88;;;2.33;;
69188;SDS011;56302;52.322;5.926;2023-02-28T04:41:10;6.03;;;2.45;;
69188;SDS011;56302;52.322;5.926;2023-02-28T04:43:37;6.13;;;2.80;;
69188;SDS011;56302;52.322;5.926;2023-02-28T04:46:18;5.63;;;2.43;;
69188;SDS011;56302;52.322;5.926;2023-02-28T04:48:44;8.27;;;2.80;;
69188;SDS011;56302;52.322;5.926;2023-02-28T04:51:11;6.87;;;2.60;;
69188;SDS011;56302;52.322;5.926;2023-02-28T04:53:39;5.47;;;2.50;;
69188;SDS011;56302;52.322;5.926;2023-02-28T04:56:06;5.63;;;2.45;;
69188;SDS011;56302;52.322;5.926;2023-02-28T04:58:33;5.00;;;2.05;;
69188;SDS011;56302;52.322;5.926;2023-02-28T05:01:02;7.80;;;2.33;;
69188;SDS011;56302;52.322;5.926;2023-02-28T05:03:52;5.20;;;2.25;;
69188;SDS011;56302;52.322;5.926;2023-02-28T05:06:19;4.15;;;2.38;;
69188;SDS011;56302;52.322;5.926;2023-02-28T05:08:48;3.90;;;2.10;;
69188;SDS011;56302;52.322;5.926;2023-02-28T05:11:15;6.53;;;2.40;;
69188;SDS011;56302;52.322;5.926;2023-02-28T05:14:01;3.65;;;2.00;;
69188;SDS011;56302;52.322;5.926;2023-02-28T05:16:28;8.57;;;2.40;;
69188;SDS011;56302;52.322;5.926;2023-02-28T05:18:53;5.53;;;2.17;;
69188;SDS011;56302;52.322;5.926;2023-02-28T05:21:23;8.00;;;2.20;;
69188;SDS011;56302;52.322;5.926;2023-02-28T05:23:58;3.97;;;2.33;;
69188;SDS011;56302;52.322;5.926;2023-02-28T05:26:25;6.18;;;2.50;;
69188;SDS011;56302;52.322;5.926;2023-02-28T05:28:52;5.68;;;2.22;;
69188;SDS011;56302;52.322;5.926;2023-02-28T05:31:18;4.97;;;2.60;;
69188;SDS011;56302;52.322;5.926;2023-02-28T05:33:44;6.75;;;2.53;;
69188;SDS011;56302;52.322;5.926;2023-02-28T05:36:10;7.43;;;2.67;;
69188;SDS011;56302;52.322;5.926;2023-02-28T05:38:35;6.40;;;2.40;;
69188;SDS011;56302;52.322;5.926;2023-02-28T05:41:04;5.33;;;2.40;;
69188;SDS011;56302;52.322;5.926;2023-02-28T05:43:31;5.88;;;2.58;;
69188;SDS011;56302;52.322;5.926;2023-02-28T05:45:56;7.43;;;2.77;;
69188;SDS011;56302;52.322;5.926;2023-02-28T05:48:22;4.53;;;2.25;;
69188;SDS011;56302;52.322;5.926;2023-02-28T05:50:47;5.27;;;2.30;;
69188;SDS011;56302;52.322;5.926;2023-02-28T05:53:13;6.20;;;2.40;;
69188;SDS011;56302;52.322;5.926;2023-02-28T05:55:38;6.73;;;3.10;;
69188;SDS011;56302;52.322;5.926;2023-02-28T05:58:06;5.32;;;2.60;;
69188;SDS011;56302;52.322;5.926;2023-02-28T06:00:31;4.20;;;2.20;;
69188;SDS011;56302;52.322;5.926;2023-02-28T06:02:56;4.75;;;2.28;;
69188;SDS011;56302;52.322;5.926;2023-02-28T06:05:26;4.47;;;2.63;;
69188;SDS011;56302;52.322;5.926;2023-02-28T06:07:52;7.53;;;2.33;;
69188;SDS011;56302;52.322;5.926;2023-02-28T06:10:18;4.00;;;2.60;;
69188;SDS011;56302;52.322;5.926;2023-02-28T06:12:44;6.03;;;2.70;;
69188;SDS011;56302;52.322;5.926;2023-02-28T06:15:11;6.57;;;2.75;;
69188;SDS011;56302;52.322;5.926;2023-02-28T06:17:38;5.13;;;2.80;;
69188;SDS011;56302;52.322;5.926;2023-02-28T06:20:04;6.43;;;2.28;;
69188;SDS011;56302;52.322;5.926;2023-02-28T06:22:30;5.68;;;2.65;;
69188;SDS011;56302;52.322;5.926;2023-02-28T06:24:56;4.00;;;2.33;;
69188;SDS011;56302;52.322;5.926;2023-02-28T06:27:22;4.90;;;2.35;;
69188;SDS011;56302;52.322;5.926;2023-02-28T06:29:48;6.10;;;2.70;;
69188;SDS011;56302;52.322;5.926;2023-02-28T06:32:13;5.07;;;2.45;;
69188;SDS011;56302;52.322;5.926;2023-02-28T06:34:39;4.77;;;2.80;;
69188;SDS011;56302;52.322;5.926;2023-02-28T06:37:05;7.00;;;2.42;;
69188;SDS011;56302;52.322;5.926;2023-02-28T06:39:30;5.37;;;2.20;;
69188;SDS011;56302;52.322;5.926;2023-02-28T06:41:57;6.47;;;2.90;;
69188;SDS011;56302;52.322;5.926;2023-02-28T06:44:22;5.77;;;2.80;;
69188;SDS011;56302;52.322;5.926;2023-02-28T06:46:49;5.50;;;2.60;;
69188;SDS011;56302;52.322;5.926;2023-02-28T06:49:14;5.20;;;2.55;;
69188;SDS011;56302;52.322;5.926;2023-02-28T06:51:42;5.60;;;2.37;;
69188;SDS011;56302;52.322;5.926;2023-02-28T06:54:12;5.88;;;2.55;;
69188;SDS011;56302;52.322;5.926;2023-02-28T06:56:38;6.63;;;2.95;;
69188;SDS011;56302;52.322;5.926;2023-02-28T06:59:03;5.10;;;2.90;;
69188;SDS011;56302;52.322;5.926;2023-02-28T07:01:29;5.55;;;2.63;;
69188;SDS011;56302;52.322;5.926;2023-02-28T07:03:56;6.70;;;3.10;;
69188;SDS011;56302;52.322;5.926;2023-02-28T07:06:22;5.78;;;2.60;;
69188;SDS011;56302;52.322;5.926;2023-02-28T07:08:49;4.90;;;2.40;;
69188;SDS011;56302;52.322;5.926;2023-02-28T07:11:15;5.22;;;2.67;;
69188;SDS011;56302;52.322;5.926;2023-02-28T07:13:40;4.93;;;2.50;;
69188;SDS011;56302;52.322;5.926;2023-02-28T07:16:07;6.33;;;2.63;;
69188;SDS011;56302;52.322;5.926;2023-02-28T07:18:35;4.65;;;2.42;;
69188;SDS011;56302;52.322;5.926;2023-02-28T07:21:02;6.88;;;2.80;;
69188;SDS011;56302;52.322;5.926;2023-02-28T07:23:29;5.45;;;2.80;;
69188;SDS011;56302;52.322;5.926;2023-02-28T07:25:55;4.93;;;2.65;;
69188;SDS011;56302;52.322;5.926;2023-02-28T07:28:20;4.50;;;2.42;;
69188;SDS011;56302;52.322;5.926;2023-02-28T07:30:46;5.17;;;2.80;;
69188;SDS011;56302;52.322;5.926;2023-02-28T07:33:11;7.13;;;3.28;;
69188;SDS011;56302;52.322;5.926;2023-02-28T07:35:37;6.63;;;2.90;;
69188;SDS011;56302;52.322;5.926;2023-02-28T07:38:02;5.60;;;2.60;;
69188;SDS011;56302;52.322;5.926;2023-02-28T07:40:28;5.55;;;3.00;;
69188;SDS011;56302;52.322;5.926;2023-02-28T07:42:54;6.47;;;2.90;;
69188;SDS011;56302;52.322;5.926;2023-02-28T07:45:20;5.83;;;2.90;;
69188;SDS011;56302;52.322;5.926;2023-02-28T07:47:46;5.10;;;2.80;;
69188;SDS011;56302;52.322;5.926;2023-02-28T07:50:12;5.70;;;2.78;;
69188;SDS011;56302;52.322;5.926;2023-02-28T07:52:40;5.78;;;2.70;;
69188;SDS011;56302;52.322;5.926;2023-02-28T07:55:06;7.80;;;2.83;;
69188;SDS011;56302;52.322;5.926;2023-02-28T07:57:33;6.07;;;2.83;;
69188;SDS011;56302;52.322;5.926;2023-02-28T07:59:59;6.93;;;2.83;;
69188;SDS011;56302;52.322;5.926;2023-02-28T08:02:24;5.28;;;2.90;;
69188;SDS011;56302;52.322;5.926;2023-02-28T08:04:50;6.10;;;2.78;;
69188;SDS011;56302;52.322;5.926;2023-02-28T08:07:16;5.93;;;2.80;;
69188;SDS011;56302;52.322;5.926;2023-02-28T08:09:42;7.55;;;3.38;;
69188;SDS011;56302;52.322;5.926;2023-02-28T08:12:09;8.35;;;3.50;;
69188;SDS011;56302;52.322;5.926;2023-02-28T08:14:35;5.22;;;3.00;;
69188;SDS011;56302;52.322;5.926;2023-02-28T08:17:01;5.60;;;2.67;;
69188;SDS011;56302;52.322;5.926;2023-02-28T08:19:27;6.97;;;2.90;;
69188;SDS011;56302;52.322;5.926;2023-02-28T08:21:54;5.35;;;2.85;;
69188;SDS011;56302;52.322;5.926;2023-02-28T08:24:20;6.70;;;2.90;;
69188;SDS011;56302;52.322;5.926;2023-02-28T08:26:45;5.60;;;3.23;;
69188;SDS011;56302;52.322;5.926;2023-02-28T08:29:11;6.93;;;3.00;;
69188;SDS011;56302;52.322;5.926;2023-02-28T08:31:37;6.25;;;3.28;;
69188;SDS011;56302;52.322;5.926;2023-02-28T08:34:09;5.43;;;3.08;;
69188;SDS011;56302;52.322;5.926;2023-02-28T08:36:36;9.37;;;3.30;;
69188;SDS011;56302;52.322;5.926;2023-02-28T08:39:02;5.43;;;2.92;;
69188;SDS011;56302;52.322;5.926;2023-02-28T08:41:28;7.47;;;3.28;;
69188;SDS011;56302;52.322;5.926;2023-02-28T08:43:54;5.53;;;2.87;;
69188;SDS011;56302;52.322;5.926;2023-02-28T08:46:19;7.03;;;2.55;;
69188;SDS011;56302;52.322;5.926;2023-02-28T08:48:45;6.33;;;2.90;;
69188;SDS011;56302;52.322;5.926;2023-02-28T08:51:15;6.15;;;2.70;;
69188;SDS011;56302;52.322;5.926;2023-02-28T08:53:43;8.02;;;2.83;;
69188;SDS011;56302;52.322;5.926;2023-02-28T08:56:12;4.37;;;2.40;;
69188;SDS011;56302;52.322;5.926;2023-02-28T08:58:38;4.82;;;2.05;;
69188;SDS011;56302;52.322;5.926;2023-02-28T09:01:09;4.20;;;1.90;;
69188;SDS011;56302;52.322;5.926;2023-02-28T09:03:45;3.60;;;2.03;;
69188;SDS011;56302;52.322;5.926;2023-02-28T09:06:12;4.93;;;1.85;;
69188;SDS011;56302;52.322;5.926;2023-02-28T09:08:39;4.60;;;1.90;;
69188;SDS011;56302;52.322;5.926;2023-02-28T09:11:05;3.45;;;1.88;;
69188;SDS011;56302;52.322;5.926;2023-02-28T09:13:31;4.93;;;1.20;;
69188;SDS011;56302;52.322;5.926;2023-02-28T09:15:58;2.95;;;1.40;;
69188;SDS011;56302;52.322;5.926;2023-02-28T09:18:25;3.53;;;1.10;;
69188;SDS011;56302;52.322;5.926;2023-02-28T09:20:51;3.73;;;1.23;;
69188;SDS011;56302;52.322;5.926;2023-02-28T09:23:17;3.97;;;1.13;;
69188;SDS011;56302;52.322;5.926;2023-02-28T09:25:51;3.40;;;1.00;;
69188;SDS011;56302;52.322;5.926;2023-02-28T09:28:18;2.80;;;0.90;;
69188;SDS011;56302;52.322;5.926;2023-02-28T09:30:45;2.85;;;0.90;;
69188;SDS011;56302;52.322;5.926;2023-02-28T09:33:16;3.40;;;1.27;;
69188;SDS011;56302;52.322;5.926;2023-02-28T09:35:42;4.38;;;1.60;;
69188;SDS011;56302;52.322;5.926;2023-02-28T09:38:08;2.50;;;1.30;;
69188;SDS011;56302;52.322;5.926;2023-02-28T09:40:36;7.47;;;1.45;;
69188;SDS011;56302;52.322;5.926;2023-02-28T09:43:05;4.78;;;1.70;;
69188;SDS011;56302;52.322;5.926;2023-02-28T09:45:35;3.00;;;1.30;;
69188;SDS011;56302;52.322;5.926;2023-02-28T09:48:12;3.28;;;1.30;;
69188;SDS011;56302;52.322;5.926;2023-02-28T09:53:12;3.22;;;1.50;;
69188;SDS011;56302;52.322;5.926;2023-02-28T09:55:48;3.40;;;1.20;;
69188;SDS011;56302;52.322;5.926;2023-02-28T09:58:23;3.28;;;1.40;;
69188;SDS011;56302;52.322;5.926;2023-02-28T10:01:00;3.03;;;1.38;;
69188;SDS011;56302;52.322;5.926;2023-02-28T10:06:17;6.20;;;1.52;;
69188;SDS011;56302;52.322;5.926;2023-02-28T10:11:18;3.08;;;1.38;;
69188;SDS011;56302;52.322;5.926;2023-02-28T10:16:34;3.40;;;1.30;;
69188;SDS011;56302;52.322;5.926;2023-02-28T10:22:14;3.55;;;1.42;;
69188;SDS011;56302;52.322;5.926;2023-02-28T10:24:49;2.70;;;1.40;;
69188;SDS011;56302;52.322;5.926;2023-02-28T10:27:17;3.20;;;1.58;;
69188;SDS011;56302;52.322;5.926;2023-02-28T10:29:45;3.53;;;1.60;;
69188;SDS011;56302;52.322;5.926;2023-02-28T10:32:20;3.15;;;1.58;;
69188;SDS011;56302;52.322;5.926;2023-02-28T10:37:48;3.20;;;1.73;;
69188;SDS011;56302;52.322;5.926;2023-02-28T10:42:58;3.83;;;1.73;;
69188;SDS011;56302;52.322;5.926;2023-02-28T10:45:26;3.38;;;1.27;;
69188;SDS011;56302;52.322;5.926;2023-02-28T10:47:56;4.03;;;1.33;;
69188;SDS011;56302;52.322;5.926;2023-02-28T10:50:51;5.60;;;1.60;;
69188;SDS011;56302;52.322;5.926;2023-02-28T10:55:58;5.73;;;1.97;;
69188;SDS011;56302;52.322;5.926;2023-02-28T11:04:03;2.83;;;1.33;;
69188;SDS011;56302;52.322;5.926;2023-02-28T11:09:29;3.40;;;1.70;;
69188;SDS011;56302;52.322;5.926;2023-02-28T11:11:59;4.93;;;1.55;;
69188;SDS011;56302;52.322;5.926;2023-02-28T11:14:28;3.83;;;1.38;;
69188;SDS011;56302;52.322;5.926;2023-02-28T11:17:00;4.53;;;2.17;;
69188;SDS011;56302;52.322;5.926;2023-02-28T11:19:40;3.08;;;1.40;;
69188;SDS011;56302;52.322;5.926;2023-02-28T11:22:10;2.90;;;1.43;;
69188;SDS011;56302;52.322;5.926;2023-02-28T11:24:41;4.55;;;1.45;;
69188;SDS011;56302;52.322;5.926;2023-02-28T11:27:45;3.22;;;1.58;;
69188;SDS011;56302;52.322;5.926;2023-02-28T11:30:23;4.43;;;1.70;;
69188;SDS011;56302;52.322;5.926;2023-02-28T11:32:51;3.22;;;1.65;;
69188;SDS011;56302;52.322;5.926;2023-02-28T11:35:18;4.07;;;1.80;;
69188;SDS011;56302;52.322;5.926;2023-02-28T11:37:52;2.70;;;1.48;;
69188;SDS011;56302;52.322;5.926;2023-02-28T11:40:18;4.30;;;1.70;;
69188;SDS011;56302;52.322;5.926;2023-02-28T11:43:07;2.67;;;1.33;;
69188;SDS011;56302;52.322;5.926;2023-02-28T11:45:55;3.53;;;1.43;;
69188;SDS011;56302;52.322;5.926;2023-02-28T11:51:49;2.85;;;1.60;;
69188;SDS011;56302;52.322;5.926;2023-02-28T11:54:23;3.08;;;1.50;;
69188;SDS011;56302;52.322;5.926;2023-02-28T11:57:16;3.42;;;1.67;;
69188;SDS011;56302;52.322;5.926;2023-02-28T12:02:51;6.07;;;1.60;;
69188;SDS011;56302;52.322;5.926;2023-02-28T12:05:44;3.78;;;1.63;;
69188;SDS011;56302;52.322;5.926;2023-02-28T12:08:36;2.65;;;1.23;;
69188;SDS011;56302;52.322;5.926;2023-02-28T12:11:30;4.55;;;1.80;;
69188;SDS011;56302;52.322;5.926;2023-02-28T12:19:57;4.15;;;1.80;;
69188;SDS011;56302;52.322;5.926;2023-02-28T12:22:49;3.70;;;1.60;;
69188;SDS011;56302;52.322;5.926;2023-02-28T12:25:50;3.83;;;1.90;;
69188;SDS011;56302;52.322;5.926;2023-02-28T12:28:35;2.47;;;1.23;;
69188;SDS011;56302;52.322;5.926;2023-02-28T12:33:45;3.30;;;1.60;;
69188;SDS011;56302;52.322;5.926;2023-02-28T12:36:16;3.53;;;1.40;;
69188;SDS011;56302;52.322;5.926;2023-02-28T12:41:54;2.63;;;0.87;;
69188;SDS011;56302;52.322;5.926;2023-02-28T12:46:55;4.60;;;1.90;;
69188;SDS011;56302;52.322;5.926;2023-02-28T12:51:56;4.63;;;1.85;;
69188;SDS011;56302;52.322;5.926;2023-02-28T12:57:55;2.80;;;1.30;;
69188;SDS011;56302;52.322;5.926;2023-02-28T13:11:01;4.03;;;1.67;;
69188;SDS011;56302;52.322;5.926;2023-02-28T13:13:28;3.30;;;1.60;;
69188;SDS011;56302;52.322;5.926;2023-02-28T13:15:59;3.58;;;1.58;;
69188;SDS011;56302;52.322;5.926;2023-02-28T13:18:27;4.05;;;2.03;;
69188;SDS011;56302;52.322;5.926;2023-02-28T13:20:58;3.90;;;1.80;;
69188;SDS011;56302;52.322;5.926;2023-02-28T13:34:33;3.25;;;1.80;;
69188;SDS011;56302;52.322;5.926;2023-02-28T13:39:47;3.03;;;1.40;;
69188;SDS011;56302;52.322;5.926;2023-02-28T13:42:36;3.75;;;1.50;;
69188;SDS011;56302;52.322;5.926;2023-02-28T13:47:44;3.47;;;1.60;;
69188;SDS011;56302;52.322;5.926;2023-02-28T14:08:45;4.65;;;2.17;;
69188;SDS011;56302;52.322;5.926;2023-02-28T14:11:29;3.60;;;2.30;;
69188;SDS011;56302;52.322;5.926;2023-02-28T14:13:56;4.50;;;2.05;;
69188;SDS011;56302;52.322;5.926;2023-02-28T14:16:24;3.50;;;1.70;;
69188;SDS011;56302;52.322;5.926;2023-02-28T14:19:14;3.30;;;2.10;;
69188;SDS011;56302;52.322;5.926;2023-02-28T14:21:51;3.38;;;1.70;;
69188;SDS011;56302;52.322;5.926;2023-02-28T14:32:53;3.47;;;1.90;;
69188;SDS011;56302;52.322;5.926;2023-02-28T14:38:06;3.15;;;1.58;;
69188;SDS011;56302;52.322;5.926;2023-02-28T14:40:38;4.05;;;2.03;;
69188;SDS011;56302;52.322;5.926;2023-02-28T14:43:05;3.87;;;1.90;;
69188;SDS011;56302;52.322;5.926;2023-02-28T14:45:43;3.50;;;1.65;;
69188;SDS011;56302;52.322;5.926;2023-02-28T14:48:15;4.22;;;1.83;;
69188;SDS011;56302;52.322;5.926;2023-02-28T14:50:41;4.72;;;1.98;;
69188;SDS011;56302;52.322;5.926;2023-02-28T14:53:18;4.75;;;2.20;;
69188;SDS011;56302;52.322;5.926;2023-02-28T14:55:46;3.73;;;2.03;;
69188;SDS011;56302;52.322;5.926;2023-02-28T14:58:21;3.58;;;1.98;;
69188;SDS011;56302;52.322;5.926;2023-02-28T15:00:50;4.00;;;2.10;;
69188;SDS011;56302;52.322;5.926;2023-02-28T15:03:29;4.43;;;1.95;;
69188;SDS011;56302;52.322;5.926;2023-02-28T15:05:57;3.60;;;1.70;;
69188;SDS011;56302;52.322;5.926;2023-02-28T15:08:30;5.07;;;2.40;;
69188;SDS011;56302;52.322;5.926;2023-02-28T15:11:21;4.38;;;2.30;;
69188;SDS011;56302;52.322;5.926;2023-02-28T15:13:50;3.75;;;1.85;;
69188;SDS011;56302;52.322;5.926;2023-02-28T15:16:37;3.63;;;1.75;;
69188;SDS011;56302;52.322;5.926;2023-02-28T15:21:38;3.70;;;2.00;;
69188;SDS011;56302;52.322;5.926;2023-02-28T15:26:39;4.57;;;1.98;;
69188;SDS011;56302;52.322;5.926;2023-02-28T15:29:15;3.53;;;1.90;;
69188;SDS011;56302;52.322;5.926;2023-02-28T15:31:47;6.28;;;2.22;;
69188;SDS011;56302;52.322;5.926;2023-02-28T15:43:03;5.68;;;2.35;;
69188;SDS011;56302;52.322;5.926;2023-02-28T15:45:33;3.97;;;2.03;;
69188;SDS011;56302;52.322;5.926;2023-02-28T15:48:03;5.93;;;1.80;;
69188;SDS011;56302;52.322;5.926;2023-02-28T15:50:51;3.72;;;2.17;;
69188;SDS011;56302;52.322;5.926;2023-02-28T15:53:32;4.82;;;2.28;;
69188;SDS011;56302;52.322;5.926;2023-02-28T15:56:02;4.85;;;2.40;;
69188;SDS011;56302;52.322;5.926;2023-02-28T15:58:46;4.85;;;2.00;;
69188;SDS011;56302;52.322;5.926;2023-02-28T16:03:51;4.20;;;2.15;;
69188;SDS011;56302;52.322;5.926;2023-02-28T16:08:57;3.33;;;1.97;;
69188;SDS011;56302;52.322;5.926;2023-02-28T16:11:22;3.75;;;1.90;;
69188;SDS011;56302;52.322;5.926;2023-02-28T16:13:48;4.43;;;2.40;;
69188;SDS011;56302;52.322;5.926;2023-02-28T16:16:19;7.03;;;2.40;;
69188;SDS011;56302;52.322;5.926;2023-02-28T16:18:46;5.05;;;2.22;;
69188;SDS011;56302;52.322;5.926;2023-02-28T16:21:12;4.43;;;2.53;;
69188;SDS011;56302;52.322;5.926;2023-02-28T16:23:37;5.30;;;2.10;;
69188;SDS011;56302;52.322;5.926;2023-02-28T16:26:03;4.27;;;2.20;;
69188;SDS011;56302;52.322;5.926;2023-02-28T16:28:31;4.50;;;2.28;;
69188;SDS011;56302;52.322;5.926;2023-02-28T16:30:59;6.40;;;2.30;;
69188;SDS011;56302;52.322;5.926;2023-02-28T16:33:27;5.55;;;2.30;;
69188;SDS011;56302;52.322;5.926;2023-02-28T16:35:54;5.05;;;2.20;;
69188;SDS011;56302;52.322;5.926;2023-02-28T16:38:19;5.00;;;2.70;;
69188;SDS011;56302;52.322;5.926;2023-02-28T16:40:46;3.90;;;2.10;;
69188;SDS011;56302;52.322;5.926;2023-02-28T16:43:15;5.93;;;2.33;;
69188;SDS011;56302;52.322;5.926;2023-02-28T16:45:47;5.35;;;2.83;;
69188;SDS011;56302;52.322;5.926;2023-02-28T16:48:13;4.03;;;2.10;;
69188;SDS011;56302;52.322;5.926;2023-02-28T16:50:41;6.60;;;2.30;;
69188;SDS011;56302;52.322;5.926;2023-02-28T16:53:09;5.03;;;2.33;;
69188;SDS011;56302;52.322;5.926;2023-02-28T16:55:35;5.25;;;2.42;;
69188;SDS011;56302;52.322;5.926;2023-02-28T16:58:02;4.87;;;2.07;;
69188;SDS011;56302;52.322;5.926;2023-02-28T17:00:29;4.70;;;1.92;;
69188;SDS011;56302;52.322;5.926;2023-02-28T17:02:56;4.40;;;2.53;;
69188;SDS011;56302;52.322;5.926;2023-02-28T17:05:22;4.43;;;2.13;;
69188;SDS011;56302;52.322;5.926;2023-02-28T17:07:49;4.00;;;2.33;;
69188;SDS011;56302;52.322;5.926;2023-02-28T17:10:19;5.05;;;2.22;;
69188;SDS011;56302;52.322;5.926;2023-02-28T17:12:47;5.68;;;2.13;;
69188;SDS011;56302;52.322;5.926;2023-02-28T17:15:13;4.75;;;2.10;;
69188;SDS011;56302;52.322;5.926;2023-02-28T17:17:41;7.10;;;2.30;;
69188;SDS011;56302;52.322;5.926;2023-02-28T17:20:09;5.65;;;2.60;;
69188;SDS011;56302;52.322;5.926;2023-02-28T17:22:40;4.57;;;2.50;;
69188;SDS011;56302;52.322;5.926;2023-02-28T17:25:06;7.03;;;2.63;;
69188;SDS011;56302;52.322;5.926;2023-02-28T17:27:33;4.50;;;2.45;;
69188;SDS011;56302;52.322;5.926;2023-02-28T17:29:59;5.50;;;2.50;;
69188;SDS011;56302;52.322;5.926;2023-02-28T17:32:25;5.43;;;1.92;;
69188;SDS011;56302;52.322;5.926;2023-02-28T17:34:52;3.65;;;2.05;;
69188;SDS011;56302;52.322;5.926;2023-02-28T17:37:18;4.97;;;2.63;;
69188;SDS011;56302;52.322;5.926;2023-02-28T17:39:43;5.45;;;2.03;;
69188;SDS011;56302;52.322;5.926;2023-02-28T17:42:09;7.90;;;2.00;;